sensor_id;sensor_type;location;lat;lon;timestamp;P1;durP1;ratioP1;P2;durP2;ratioP2
38805;SDS011;25635;51.146;17.162;2022-10-17T00:00:35;22.35;;;15.80;;
38805;SDS011;25635;51.146;17.162;2022-10-17T00:03:03;21.45;;;16.07;;
38805;SDS011;25635;51.146;17.162;2022-10-17T00:05:29;21.77;;;15.23;;
38805;SDS011;25635;51.146;17.162;2022-10-17T00:07:56;21.55;;;15.72;;
38805;SDS011;25635;51.146;17.162;2022-10-17T00:10:22;23.47;;;16.07;;
38805;SDS011;25635;51.146;17.162;2022-10-17T00:12:49;20.55;;;15.43;;
38805;SDS011;25635;51.146;17.162;2022-10-17T00:15:17;22.55;;;15.43;;
38805;SDS011;25635;51.146;17.162;2022-10-17T00:17:45;26.65;;;18.10;;
38805;SDS011;25635;51.146;17.162;2022-10-17T00:20:11;25.30;;;18.77;;
38805;SDS011;25635;51.146;17.162;2022-10-17T00:22:38;29.30;;;19.17;;
38805;SDS011;25635;51.146;17.162;2022-10-17T00:25:05;27.02;;;19.90;;
38805;SDS011;25635;51.146;17.162;2022-10-17T00:27:36;24.95;;;18.42;;
38805;SDS011;25635;51.146;17.162;2022-10-17T00:30:05;25.12;;;18.55;;
38805;SDS011;25635;51.146;17.162;2022-10-17T00:32:34;28.55;;;19.00;;
38805;SDS011;25635;51.146;17.162;2022-10-17T00:35:01;26.25;;;19.75;;
38805;SDS011;25635;51.146;17.162;2022-10-17T00:37:29;24.70;;;19.00;;
38805;SDS011;25635;51.146;17.162;2022-10-17T00:39:56;29.12;;;19.42;;
38805;SDS011;25635;51.146;17.162;2022-10-17T00:42:23;23.27;;;17.60;;
38805;SDS011;25635;51.146;17.162;2022-10-17T00:44:59;26.65;;;17.95;;
38805;SDS011;25635;51.146;17.162;2022-10-17T00:47:34;22.50;;;17.10;;
38805;SDS011;25635;51.146;17.162;2022-10-17T00:50:02;24.35;;;18.02;;
38805;SDS011;25635;51.146;17.162;2022-10-17T00:52:30;28.70;;;20.43;;
38805;SDS011;25635;51.146;17.162;2022-10-17T00:55:00;24.15;;;18.65;;
38805;SDS011;25635;51.146;17.162;2022-10-17T00:57:29;22.70;;;17.55;;
38805;SDS011;25635;51.146;17.162;2022-10-17T00:59:57;20.08;;;15.58;;
38805;SDS011;25635;51.146;17.162;2022-10-17T01:02:25;22.77;;;15.80;;
38805;SDS011;25635;51.146;17.162;2022-10-17T01:04:51;23.25;;;17.05;;
38805;SDS011;25635;51.146;17.162;2022-10-17T01:07:21;21.30;;;15.85;;
38805;SDS011;25635;51.146;17.162;2022-10-17T01:09:47;21.80;;;16.90;;
38805;SDS011;25635;51.146;17.162;2022-10-17T01:12:17;22.35;;;15.98;;
38805;SDS011;25635;51.146;17.162;2022-10-17T01:24:15;24.60;;;19.20;;
38805;SDS011;25635;51.146;17.162;2022-10-17T01:26:55;28.30;;;20.75;;
38805;SDS011;25635;51.146;17.162;2022-10-17T01:32:24;25.72;;;17.92;;
38805;SDS011;25635;51.146;17.162;2022-10-17T01:37:45;22.93;;;17.77;;
38805;SDS011;25635;51.146;17.162;2022-10-17T01:40:49;24.02;;;17.57;;
38805;SDS011;25635;51.146;17.162;2022-10-17T01:43:41;21.37;;;15.80;;
38805;SDS011;25635;51.146;17.162;2022-10-17T01:46:21;22.93;;;17.48;;
38805;SDS011;25635;51.146;17.162;2022-10-17T01:49:04;27.37;;;18.98;;
38805;SDS011;25635;51.146;17.162;2022-10-17T01:51:45;27.30;;;17.25;;
38805;SDS011;25635;51.146;17.162;2022-10-17T01:54:18;28.25;;;19.50;;
38805;SDS011;25635;51.146;17.162;2022-10-17T01:56:56;26.15;;;18.52;;
38805;SDS011;25635;51.146;17.162;2022-10-17T01:59:28;24.20;;;16.87;;
38805;SDS011;25635;51.146;17.162;2022-10-17T02:02:01;23.67;;;17.47;;
38805;SDS011;25635;51.146;17.162;2022-10-17T02:04:27;23.62;;;16.80;;
38805;SDS011;25635;51.146;17.162;2022-10-17T02:06:54;20.45;;;16.15;;
38805;SDS011;25635;51.146;17.162;2022-10-17T02:09:24;27.65;;;18.87;;
38805;SDS011;25635;51.146;17.162;2022-10-17T02:12:02;26.80;;;18.95;;
38805;SDS011;25635;51.146;17.162;2022-10-17T02:14:46;24.02;;;18.48;;
38805;SDS011;25635;51.146;17.162;2022-10-17T02:31:35;28.40;;;20.00;;
38805;SDS011;25635;51.146;17.162;2022-10-17T02:34:26;26.50;;;21.05;;
38805;SDS011;25635;51.146;17.162;2022-10-17T02:37:02;29.05;;;21.17;;
38805;SDS011;25635;51.146;17.162;2022-10-17T02:39:32;26.27;;;19.50;;
38805;SDS011;25635;51.146;17.162;2022-10-17T02:42:01;26.65;;;19.57;;
38805;SDS011;25635;51.146;17.162;2022-10-17T02:44:31;24.47;;;18.27;;
38805;SDS011;25635;51.146;17.162;2022-10-17T02:47:06;22.75;;;18.25;;
38805;SDS011;25635;51.146;17.162;2022-10-17T02:49:53;24.32;;;17.75;;
38805;SDS011;25635;51.146;17.162;2022-10-17T02:55:16;24.02;;;17.42;;
38805;SDS011;25635;51.146;17.162;2022-10-17T02:57:56;26.65;;;17.98;;
38805;SDS011;25635;51.146;17.162;2022-10-17T03:00:39;26.57;;;17.92;;
38805;SDS011;25635;51.146;17.162;2022-10-17T03:03:27;23.02;;;18.50;;
38805;SDS011;25635;51.146;17.162;2022-10-17T03:05:56;28.65;;;20.57;;
38805;SDS011;25635;51.146;17.162;2022-10-17T03:08:23;24.87;;;18.52;;
38805;SDS011;25635;51.146;17.162;2022-10-17T03:10:49;23.75;;;17.77;;
38805;SDS011;25635;51.146;17.162;2022-10-17T03:13:17;25.48;;;17.45;;
38805;SDS011;25635;51.146;17.162;2022-10-17T03:15:43;21.95;;;16.50;;
38805;SDS011;25635;51.146;17.162;2022-10-17T03:18:09;22.32;;;16.17;;
38805;SDS011;25635;51.146;17.162;2022-10-17T03:20:36;23.30;;;16.90;;
38805;SDS011;25635;51.146;17.162;2022-10-17T03:23:02;23.42;;;17.02;;
38805;SDS011;25635;51.146;17.162;2022-10-17T03:25:28;22.98;;;16.93;;
38805;SDS011;25635;51.146;17.162;2022-10-17T03:27:56;21.73;;;16.45;;
38805;SDS011;25635;51.146;17.162;2022-10-17T03:30:25;25.00;;;17.35;;
38805;SDS011;25635;51.146;17.162;2022-10-17T03:32:52;24.95;;;17.73;;
38805;SDS011;25635;51.146;17.162;2022-10-17T03:35:19;26.90;;;19.00;;
38805;SDS011;25635;51.146;17.162;2022-10-17T03:37:45;27.37;;;19.82;;
38805;SDS011;25635;51.146;17.162;2022-10-17T03:40:11;24.72;;;19.65;;
38805;SDS011;25635;51.146;17.162;2022-10-17T03:42:37;28.52;;;20.52;;
38805;SDS011;25635;51.146;17.162;2022-10-17T03:45:04;24.27;;;18.32;;
38805;SDS011;25635;51.146;17.162;2022-10-17T03:47:31;24.15;;;18.70;;
38805;SDS011;25635;51.146;17.162;2022-10-17T03:49:57;25.25;;;18.35;;
38805;SDS011;25635;51.146;17.162;2022-10-17T03:52:23;22.45;;;17.52;;
38805;SDS011;25635;51.146;17.162;2022-10-17T03:54:49;22.27;;;17.57;;
38805;SDS011;25635;51.146;17.162;2022-10-17T03:57:16;23.70;;;16.65;;
38805;SDS011;25635;51.146;17.162;2022-10-17T03:59:43;20.75;;;16.70;;
38805;SDS011;25635;51.146;17.162;2022-10-17T04:02:10;20.12;;;16.10;;
38805;SDS011;25635;51.146;17.162;2022-10-17T04:04:36;22.85;;;16.60;;
38805;SDS011;25635;51.146;17.162;2022-10-17T04:07:02;15.83;;;12.65;;
38805;SDS011;25635;51.146;17.162;2022-10-17T04:09:28;17.48;;;13.90;;
38805;SDS011;25635;51.146;17.162;2022-10-17T04:11:54;23.42;;;17.37;;
38805;SDS011;25635;51.146;17.162;2022-10-17T04:14:21;26.97;;;19.02;;
38805;SDS011;25635;51.146;17.162;2022-10-17T04:16:47;20.48;;;15.13;;
38805;SDS011;25635;51.146;17.162;2022-10-17T04:19:13;20.05;;;16.20;;
38805;SDS011;25635;51.146;17.162;2022-10-17T04:21:39;19.90;;;14.78;;
38805;SDS011;25635;51.146;17.162;2022-10-17T04:24:05;19.98;;;15.80;;
38805;SDS011;25635;51.146;17.162;2022-10-17T04:26:35;23.98;;;17.42;;
38805;SDS011;25635;51.146;17.162;2022-10-17T04:29:01;22.67;;;16.70;;
38805;SDS011;25635;51.146;17.162;2022-10-17T04:31:27;20.72;;;15.98;;
38805;SDS011;25635;51.146;17.162;2022-10-17T04:33:53;20.45;;;16.00;;
38805;SDS011;25635;51.146;17.162;2022-10-17T04:36:19;23.92;;;18.77;;
38805;SDS011;25635;51.146;17.162;2022-10-17T04:38:47;25.57;;;19.85;;
38805;SDS011;25635;51.146;17.162;2022-10-17T04:41:14;26.17;;;19.40;;
38805;SDS011;25635;51.146;17.162;2022-10-17T04:43:43;25.23;;;19.35;;
38805;SDS011;25635;51.146;17.162;2022-10-17T04:46:11;21.73;;;16.42;;
38805;SDS011;25635;51.146;17.162;2022-10-17T04:48:39;22.25;;;16.12;;
38805;SDS011;25635;51.146;17.162;2022-10-17T04:51:09;25.57;;;17.15;;
38805;SDS011;25635;51.146;17.162;2022-10-17T04:53:40;22.35;;;17.65;;
38805;SDS011;25635;51.146;17.162;2022-10-17T04:58:43;24.43;;;18.12;;
38805;SDS011;25635;51.146;17.162;2022-10-17T05:01:11;26.80;;;19.25;;
38805;SDS011;25635;51.146;17.162;2022-10-17T05:03:40;29.52;;;19.60;;
38805;SDS011;25635;51.146;17.162;2022-10-17T05:06:09;27.48;;;20.25;;
38805;SDS011;25635;51.146;17.162;2022-10-17T05:08:41;29.90;;;21.85;;
38805;SDS011;25635;51.146;17.162;2022-10-17T05:11:19;28.23;;;20.43;;
38805;SDS011;25635;51.146;17.162;2022-10-17T05:13:52;26.82;;;19.27;;
38805;SDS011;25635;51.146;17.162;2022-10-17T05:16:21;24.80;;;17.70;;
38805;SDS011;25635;51.146;17.162;2022-10-17T05:18:49;24.02;;;18.17;;
38805;SDS011;25635;51.146;17.162;2022-10-17T05:21:17;25.23;;;17.92;;
38805;SDS011;25635;51.146;17.162;2022-10-17T05:23:45;24.92;;;18.23;;
38805;SDS011;25635;51.146;17.162;2022-10-17T05:26:11;25.55;;;17.77;;
38805;SDS011;25635;51.146;17.162;2022-10-17T05:28:38;24.77;;;17.52;;
38805;SDS011;25635;51.146;17.162;2022-10-17T05:31:05;25.77;;;18.27;;
38805;SDS011;25635;51.146;17.162;2022-10-17T05:33:34;20.77;;;15.85;;
38805;SDS011;25635;51.146;17.162;2022-10-17T05:36:01;24.07;;;17.67;;
38805;SDS011;25635;51.146;17.162;2022-10-17T05:38:29;23.70;;;17.30;;
38805;SDS011;25635;51.146;17.162;2022-10-17T05:40:58;22.77;;;17.50;;
38805;SDS011;25635;51.146;17.162;2022-10-17T05:43:28;23.50;;;17.25;;
38805;SDS011;25635;51.146;17.162;2022-10-17T05:45:54;22.73;;;17.77;;
38805;SDS011;25635;51.146;17.162;2022-10-17T05:48:21;25.20;;;17.67;;
38805;SDS011;25635;51.146;17.162;2022-10-17T05:50:48;25.35;;;17.75;;
38805;SDS011;25635;51.146;17.162;2022-10-17T05:53:15;24.00;;;17.57;;
38805;SDS011;25635;51.146;17.162;2022-10-17T05:55:42;23.30;;;17.25;;
38805;SDS011;25635;51.146;17.162;2022-10-17T05:58:08;22.05;;;16.52;;
38805;SDS011;25635;51.146;17.162;2022-10-17T06:00:34;19.98;;;14.83;;
38805;SDS011;25635;51.146;17.162;2022-10-17T06:03:00;22.22;;;16.65;;
38805;SDS011;25635;51.146;17.162;2022-10-17T06:05:26;20.20;;;15.28;;
38805;SDS011;25635;51.146;17.162;2022-10-17T06:07:52;20.20;;;15.43;;
38805;SDS011;25635;51.146;17.162;2022-10-17T06:10:19;23.92;;;17.48;;
38805;SDS011;25635;51.146;17.162;2022-10-17T06:12:45;28.23;;;20.30;;
38805;SDS011;25635;51.146;17.162;2022-10-17T06:15:11;27.22;;;20.27;;
38805;SDS011;25635;51.146;17.162;2022-10-17T06:17:37;26.25;;;20.30;;
38805;SDS011;25635;51.146;17.162;2022-10-17T06:20:04;24.40;;;18.62;;
38805;SDS011;25635;51.146;17.162;2022-10-17T06:22:31;30.17;;;19.95;;
38805;SDS011;25635;51.146;17.162;2022-10-17T06:24:57;25.92;;;19.00;;
38805;SDS011;25635;51.146;17.162;2022-10-17T06:27:23;24.90;;;18.82;;
38805;SDS011;25635;51.146;17.162;2022-10-17T06:29:50;27.00;;;18.90;;
38805;SDS011;25635;51.146;17.162;2022-10-17T06:32:16;26.45;;;19.45;;
38805;SDS011;25635;51.146;17.162;2022-10-17T06:34:42;26.62;;;20.72;;
38805;SDS011;25635;51.146;17.162;2022-10-17T06:37:09;27.32;;;20.48;;
38805;SDS011;25635;51.146;17.162;2022-10-17T06:39:35;32.45;;;21.80;;
38805;SDS011;25635;51.146;17.162;2022-10-17T06:42:02;28.77;;;20.52;;
38805;SDS011;25635;51.146;17.162;2022-10-17T06:44:29;30.90;;;20.77;;
38805;SDS011;25635;51.146;17.162;2022-10-17T06:46:57;29.90;;;20.02;;
38805;SDS011;25635;51.146;17.162;2022-10-17T06:49:24;29.25;;;20.52;;
38805;SDS011;25635;51.146;17.162;2022-10-17T06:51:50;28.20;;;20.17;;
38805;SDS011;25635;51.146;17.162;2022-10-17T06:54:16;27.60;;;20.70;;
38805;SDS011;25635;51.146;17.162;2022-10-17T06:56:42;26.37;;;19.45;;
38805;SDS011;25635;51.146;17.162;2022-10-17T06:59:09;27.65;;;20.57;;
38805;SDS011;25635;51.146;17.162;2022-10-17T07:01:35;26.50;;;20.05;;
38805;SDS011;25635;51.146;17.162;2022-10-17T07:04:02;26.82;;;19.73;;
38805;SDS011;25635;51.146;17.162;2022-10-17T07:06:28;28.67;;;19.80;;
38805;SDS011;25635;51.146;17.162;2022-10-17T07:08:55;28.02;;;20.52;;
38805;SDS011;25635;51.146;17.162;2022-10-17T07:11:22;26.95;;;20.27;;
38805;SDS011;25635;51.146;17.162;2022-10-17T07:13:48;26.73;;;20.43;;
38805;SDS011;25635;51.146;17.162;2022-10-17T07:16:14;25.45;;;20.27;;
38805;SDS011;25635;51.146;17.162;2022-10-17T07:18:41;30.95;;;18.77;;
38805;SDS011;25635;51.146;17.162;2022-10-17T07:21:08;28.30;;;19.00;;
38805;SDS011;25635;51.146;17.162;2022-10-17T07:23:35;25.15;;;18.67;;
38805;SDS011;25635;51.146;17.162;2022-10-17T07:26:04;26.07;;;18.82;;
38805;SDS011;25635;51.146;17.162;2022-10-17T07:28:34;26.25;;;20.32;;
38805;SDS011;25635;51.146;17.162;2022-10-17T07:31:04;24.98;;;18.82;;
38805;SDS011;25635;51.146;17.162;2022-10-17T07:33:36;25.32;;;19.75;;
38805;SDS011;25635;51.146;17.162;2022-10-17T07:36:03;25.68;;;18.75;;
38805;SDS011;25635;51.146;17.162;2022-10-17T07:38:30;28.00;;;19.42;;
38805;SDS011;25635;51.146;17.162;2022-10-17T07:41:01;26.10;;;19.30;;
38805;SDS011;25635;51.146;17.162;2022-10-17T07:43:29;25.27;;;18.48;;
38805;SDS011;25635;51.146;17.162;2022-10-17T07:45:57;25.37;;;18.00;;
38805;SDS011;25635;51.146;17.162;2022-10-17T07:48:33;23.47;;;18.17;;
38805;SDS011;25635;51.146;17.162;2022-10-17T07:51:06;25.23;;;18.50;;
38805;SDS011;25635;51.146;17.162;2022-10-17T07:53:37;25.32;;;20.35;;
38805;SDS011;25635;51.146;17.162;2022-10-17T07:56:05;24.47;;;19.30;;
38805;SDS011;25635;51.146;17.162;2022-10-17T07:58:33;25.62;;;19.50;;
38805;SDS011;25635;51.146;17.162;2022-10-17T08:01:02;26.62;;;19.30;;
38805;SDS011;25635;51.146;17.162;2022-10-17T08:03:31;27.93;;;19.55;;
38805;SDS011;25635;51.146;17.162;2022-10-17T08:05:58;25.72;;;19.02;;
38805;SDS011;25635;51.146;17.162;2022-10-17T08:08:26;26.55;;;17.95;;
38805;SDS011;25635;51.146;17.162;2022-10-17T08:10:53;25.20;;;19.20;;
38805;SDS011;25635;51.146;17.162;2022-10-17T08:13:23;22.85;;;18.40;;
38805;SDS011;25635;51.146;17.162;2022-10-17T08:15:49;26.10;;;18.00;;
38805;SDS011;25635;51.146;17.162;2022-10-17T08:18:16;22.85;;;17.75;;
38805;SDS011;25635;51.146;17.162;2022-10-17T08:20:42;21.82;;;16.75;;
38805;SDS011;25635;51.146;17.162;2022-10-17T08:23:09;21.02;;;15.85;;
38805;SDS011;25635;51.146;17.162;2022-10-17T08:25:38;20.65;;;15.50;;
38805;SDS011;25635;51.146;17.162;2022-10-17T08:28:05;19.67;;;15.25;;
38805;SDS011;25635;51.146;17.162;2022-10-17T08:30:32;22.13;;;15.48;;
38805;SDS011;25635;51.146;17.162;2022-10-17T08:32:58;24.37;;;16.48;;
38805;SDS011;25635;51.146;17.162;2022-10-17T08:35:24;25.97;;;19.12;;
38805;SDS011;25635;51.146;17.162;2022-10-17T08:37:51;22.17;;;17.05;;
38805;SDS011;25635;51.146;17.162;2022-10-17T08:40:20;20.72;;;15.63;;
38805;SDS011;25635;51.146;17.162;2022-10-17T08:46:04;18.05;;;13.45;;
38805;SDS011;25635;51.146;17.162;2022-10-17T08:48:35;18.27;;;14.15;;
38805;SDS011;25635;51.146;17.162;2022-10-17T08:51:22;17.90;;;14.30;;
38805;SDS011;25635;51.146;17.162;2022-10-17T08:53:59;18.55;;;14.75;;
38805;SDS011;25635;51.146;17.162;2022-10-17T08:56:44;20.70;;;14.98;;
38805;SDS011;25635;51.146;17.162;2022-10-17T08:59:19;19.55;;;14.95;;
38805;SDS011;25635;51.146;17.162;2022-10-17T09:01:51;21.33;;;15.38;;
38805;SDS011;25635;51.146;17.162;2022-10-17T09:07:31;18.10;;;14.40;;
38805;SDS011;25635;51.146;17.162;2022-10-17T09:18:39;17.25;;;13.72;;
38805;SDS011;25635;51.146;17.162;2022-10-17T09:21:13;20.25;;;15.32;;
38805;SDS011;25635;51.146;17.162;2022-10-17T09:23:51;18.23;;;13.50;;
38805;SDS011;25635;51.146;17.162;2022-10-17T09:26:21;15.55;;;13.62;;
38805;SDS011;25635;51.146;17.162;2022-10-17T09:28:54;16.32;;;12.98;;
38805;SDS011;25635;51.146;17.162;2022-10-17T09:31:21;18.17;;;12.68;;
38805;SDS011;25635;51.146;17.162;2022-10-17T09:33:56;16.07;;;14.05;;
38805;SDS011;25635;51.146;17.162;2022-10-17T09:36:30;19.05;;;14.63;;
38805;SDS011;25635;51.146;17.162;2022-10-17T09:39:13;20.85;;;15.23;;
38805;SDS011;25635;51.146;17.162;2022-10-17T09:41:49;17.65;;;14.18;;
38805;SDS011;25635;51.146;17.162;2022-10-17T09:50:14;19.02;;;13.72;;
38805;SDS011;25635;51.146;17.162;2022-10-17T09:52:43;18.57;;;14.93;;
38805;SDS011;25635;51.146;17.162;2022-10-17T10:00:27;19.57;;;14.33;;
38805;SDS011;25635;51.146;17.162;2022-10-17T10:08:46;18.12;;;14.98;;
38805;SDS011;25635;51.146;17.162;2022-10-17T10:11:25;22.00;;;14.93;;
38805;SDS011;25635;51.146;17.162;2022-10-17T10:14:31;17.00;;;13.85;;
38805;SDS011;25635;51.146;17.162;2022-10-17T10:17:01;18.98;;;13.90;;
38805;SDS011;25635;51.146;17.162;2022-10-17T10:19:31;15.90;;;12.70;;
38805;SDS011;25635;51.146;17.162;2022-10-17T10:22:04;20.37;;;15.20;;
38805;SDS011;25635;51.146;17.162;2022-10-17T10:24:43;18.62;;;14.28;;
38805;SDS011;25635;51.146;17.162;2022-10-17T10:27:11;19.77;;;14.30;;
38805;SDS011;25635;51.146;17.162;2022-10-17T10:29:41;14.85;;;12.80;;
38805;SDS011;25635;51.146;17.162;2022-10-17T10:32:23;17.32;;;12.95;;
38805;SDS011;25635;51.146;17.162;2022-10-17T10:37:44;14.25;;;11.73;;
38805;SDS011;25635;51.146;17.162;2022-10-17T10:40:15;14.13;;;11.12;;
38805;SDS011;25635;51.146;17.162;2022-10-17T10:43:02;18.40;;;11.18;;
38805;SDS011;25635;51.146;17.162;2022-10-17T10:48:15;15.45;;;10.95;;
38805;SDS011;25635;51.146;17.162;2022-10-17T10:50:57;15.15;;;11.43;;
38805;SDS011;25635;51.146;17.162;2022-10-17T10:53:50;13.62;;;11.43;;
38805;SDS011;25635;51.146;17.162;2022-10-17T11:04:33;14.83;;;11.28;;
38805;SDS011;25635;51.146;17.162;2022-10-17T11:07:20;13.08;;;10.63;;
38805;SDS011;25635;51.146;17.162;2022-10-17T11:12:47;13.58;;;10.15;;
38805;SDS011;25635;51.146;17.162;2022-10-17T11:18:25;15.18;;;10.40;;
38805;SDS011;25635;51.146;17.162;2022-10-17T11:21:25;14.43;;;9.88;;
38805;SDS011;25635;51.146;17.162;2022-10-17T11:24:01;14.03;;;9.98;;
38805;SDS011;25635;51.146;17.162;2022-10-17T11:26:42;12.98;;;10.30;;
38805;SDS011;25635;51.146;17.162;2022-10-17T11:29:20;15.85;;;11.00;;
38805;SDS011;25635;51.146;17.162;2022-10-17T11:31:53;14.45;;;10.90;;
38805;SDS011;25635;51.146;17.162;2022-10-17T11:34:23;13.25;;;10.30;;
38805;SDS011;25635;51.146;17.162;2022-10-17T11:36:53;14.38;;;10.72;;
38805;SDS011;25635;51.146;17.162;2022-10-17T11:42:08;13.05;;;10.35;;
38805;SDS011;25635;51.146;17.162;2022-10-17T11:44:38;15.03;;;10.70;;
38805;SDS011;25635;51.146;17.162;2022-10-17T11:47:10;14.20;;;10.98;;
38805;SDS011;25635;51.146;17.162;2022-10-17T11:49:43;15.03;;;10.20;;
38805;SDS011;25635;51.146;17.162;2022-10-17T11:52:25;12.25;;;10.95;;
38805;SDS011;25635;51.146;17.162;2022-10-17T11:55:24;14.58;;;11.08;;
38805;SDS011;25635;51.146;17.162;2022-10-17T11:57:59;15.70;;;10.95;;
38805;SDS011;25635;51.146;17.162;2022-10-17T12:09:59;12.15;;;9.90;;
38805;SDS011;25635;51.146;17.162;2022-10-17T12:12:41;13.13;;;11.05;;
38805;SDS011;25635;51.146;17.162;2022-10-17T12:20:31;13.25;;;11.33;;
38805;SDS011;25635;51.146;17.162;2022-10-17T12:25:33;14.53;;;10.78;;
38805;SDS011;25635;51.146;17.162;2022-10-17T12:33:54;15.65;;;10.72;;
38805;SDS011;25635;51.146;17.162;2022-10-17T12:49:38;14.03;;;11.12;;
38805;SDS011;25635;51.146;17.162;2022-10-17T12:55:08;13.78;;;10.48;;
38805;SDS011;25635;51.146;17.162;2022-10-17T13:03:21;13.93;;;10.70;;
38805;SDS011;25635;51.146;17.162;2022-10-17T13:05:56;14.05;;;10.95;;
38805;SDS011;25635;51.146;17.162;2022-10-17T13:08:29;13.68;;;10.95;;
38805;SDS011;25635;51.146;17.162;2022-10-17T13:10:59;12.47;;;10.68;;
38805;SDS011;25635;51.146;17.162;2022-10-17T13:13:43;16.67;;;11.48;;
38805;SDS011;25635;51.146;17.162;2022-10-17T13:18:58;15.85;;;11.80;;
38805;SDS011;25635;51.146;17.162;2022-10-17T13:21:29;15.28;;;11.73;;
38805;SDS011;25635;51.146;17.162;2022-10-17T13:23:55;17.77;;;12.30;;
38805;SDS011;25635;51.146;17.162;2022-10-17T13:26:22;16.15;;;12.10;;
38805;SDS011;25635;51.146;17.162;2022-10-17T13:29:00;15.53;;;12.07;;
38805;SDS011;25635;51.146;17.162;2022-10-17T13:31:31;16.07;;;12.45;;
38805;SDS011;25635;51.146;17.162;2022-10-17T13:34:02;16.17;;;12.33;;
38805;SDS011;25635;51.146;17.162;2022-10-17T13:36:31;19.92;;;13.08;;
38805;SDS011;25635;51.146;17.162;2022-10-17T13:38:59;18.30;;;12.60;;
38805;SDS011;25635;51.146;17.162;2022-10-17T13:41:33;15.18;;;12.25;;
38805;SDS011;25635;51.146;17.162;2022-10-17T13:44:01;15.50;;;11.85;;
38805;SDS011;25635;51.146;17.162;2022-10-17T13:46:37;16.73;;;12.45;;
38805;SDS011;25635;51.146;17.162;2022-10-17T13:49:20;16.87;;;12.25;;
38805;SDS011;25635;51.146;17.162;2022-10-17T13:52:02;15.50;;;12.73;;
38805;SDS011;25635;51.146;17.162;2022-10-17T13:54:32;17.30;;;13.10;;
38805;SDS011;25635;51.146;17.162;2022-10-17T13:57:18;17.92;;;12.98;;
38805;SDS011;25635;51.146;17.162;2022-10-17T13:59:56;15.93;;;12.53;;
38805;SDS011;25635;51.146;17.162;2022-10-17T14:02:31;15.72;;;12.28;;
38805;SDS011;25635;51.146;17.162;2022-10-17T14:05:00;15.40;;;12.75;;
38805;SDS011;25635;51.146;17.162;2022-10-17T14:07:39;15.35;;;12.45;;
38805;SDS011;25635;51.146;17.162;2022-10-17T14:10:24;15.80;;;12.93;;
38805;SDS011;25635;51.146;17.162;2022-10-17T14:13:00;16.52;;;12.47;;
38805;SDS011;25635;51.146;17.162;2022-10-17T14:15:33;16.40;;;11.80;;
38805;SDS011;25635;51.146;17.162;2022-10-17T14:18:05;17.27;;;12.43;;
38805;SDS011;25635;51.146;17.162;2022-10-17T14:20:34;14.80;;;11.57;;
38805;SDS011;25635;51.146;17.162;2022-10-17T14:23:01;15.90;;;11.05;;
38805;SDS011;25635;51.146;17.162;2022-10-17T14:25:31;16.27;;;11.93;;
38805;SDS011;25635;51.146;17.162;2022-10-17T14:28:02;20.62;;;12.28;;
38805;SDS011;25635;51.146;17.162;2022-10-17T14:30:37;15.03;;;11.90;;
38805;SDS011;25635;51.146;17.162;2022-10-17T14:33:13;16.27;;;12.13;;
38805;SDS011;25635;51.146;17.162;2022-10-17T14:35:50;14.65;;;12.03;;
38805;SDS011;25635;51.146;17.162;2022-10-17T14:38:26;15.08;;;12.35;;
38805;SDS011;25635;51.146;17.162;2022-10-17T14:41:04;16.35;;;12.10;;
38805;SDS011;25635;51.146;17.162;2022-10-17T14:43:29;17.27;;;11.73;;
38805;SDS011;25635;51.146;17.162;2022-10-17T14:45:58;17.67;;;12.90;;
38805;SDS011;25635;51.146;17.162;2022-10-17T14:48:26;14.13;;;11.78;;
38805;SDS011;25635;51.146;17.162;2022-10-17T14:53:37;16.37;;;12.37;;
38805;SDS011;25635;51.146;17.162;2022-10-17T14:56:17;14.98;;;12.45;;
38805;SDS011;25635;51.146;17.162;2022-10-17T14:58:48;16.73;;;12.45;;
38805;SDS011;25635;51.146;17.162;2022-10-17T15:01:14;17.37;;;12.68;;
38805;SDS011;25635;51.146;17.162;2022-10-17T15:03:40;16.57;;;12.20;;
38805;SDS011;25635;51.146;17.162;2022-10-17T15:06:25;19.75;;;13.48;;
38805;SDS011;25635;51.146;17.162;2022-10-17T15:08:59;18.30;;;12.88;;
38805;SDS011;25635;51.146;17.162;2022-10-17T15:11:26;17.67;;;12.60;;
38805;SDS011;25635;51.146;17.162;2022-10-17T15:13:53;17.48;;;11.80;;
38805;SDS011;25635;51.146;17.162;2022-10-17T15:16:20;16.10;;;12.05;;
38805;SDS011;25635;51.146;17.162;2022-10-17T15:18:50;15.88;;;12.03;;
38805;SDS011;25635;51.146;17.162;2022-10-17T15:21:19;17.45;;;12.40;;
38805;SDS011;25635;51.146;17.162;2022-10-17T15:23:48;19.15;;;13.38;;
38805;SDS011;25635;51.146;17.162;2022-10-17T15:26:17;16.35;;;13.05;;
38805;SDS011;25635;51.146;17.162;2022-10-17T15:28:52;17.27;;;12.58;;
38805;SDS011;25635;51.146;17.162;2022-10-17T15:31:20;17.60;;;13.20;;
38805;SDS011;25635;51.146;17.162;2022-10-17T15:33:49;21.15;;;13.30;;
38805;SDS011;25635;51.146;17.162;2022-10-17T15:36:20;19.02;;;13.20;;
38805;SDS011;25635;51.146;17.162;2022-10-17T15:38:50;21.17;;;13.80;;
38805;SDS011;25635;51.146;17.162;2022-10-17T15:41:20;21.68;;;15.18;;
38805;SDS011;25635;51.146;17.162;2022-10-17T15:43:49;28.12;;;17.52;;
38805;SDS011;25635;51.146;17.162;2022-10-17T15:46:20;25.90;;;17.75;;
38805;SDS011;25635;51.146;17.162;2022-10-17T15:48:50;22.37;;;15.50;;
38805;SDS011;25635;51.146;17.162;2022-10-17T15:51:21;18.52;;;14.28;;
38805;SDS011;25635;51.146;17.162;2022-10-17T15:53:54;22.52;;;14.78;;
38805;SDS011;25635;51.146;17.162;2022-10-17T15:56:28;19.10;;;14.33;;
38805;SDS011;25635;51.146;17.162;2022-10-17T15:58:59;21.00;;;14.65;;
38805;SDS011;25635;51.146;17.162;2022-10-17T16:01:29;24.50;;;15.38;;
38805;SDS011;25635;51.146;17.162;2022-10-17T16:03:56;23.15;;;15.48;;
38805;SDS011;25635;51.146;17.162;2022-10-17T16:06:23;21.00;;;15.68;;
38805;SDS011;25635;51.146;17.162;2022-10-17T16:08:50;21.82;;;16.17;;
38805;SDS011;25635;51.146;17.162;2022-10-17T16:14:00;31.70;;;22.30;;
38805;SDS011;25635;51.146;17.162;2022-10-17T16:16:30;59.05;;;37.15;;
38805;SDS011;25635;51.146;17.162;2022-10-17T16:18:56;46.75;;;30.95;;
38805;SDS011;25635;51.146;17.162;2022-10-17T16:21:24;34.33;;;24.95;;
38805;SDS011;25635;51.146;17.162;2022-10-17T16:23:54;31.12;;;22.17;;
38805;SDS011;25635;51.146;17.162;2022-10-17T16:26:20;30.82;;;21.80;;
38805;SDS011;25635;51.146;17.162;2022-10-17T16:28:47;27.52;;;20.72;;
38805;SDS011;25635;51.146;17.162;2022-10-17T16:31:18;24.63;;;19.07;;
38805;SDS011;25635;51.146;17.162;2022-10-17T16:33:47;29.12;;;20.17;;
38805;SDS011;25635;51.146;17.162;2022-10-17T16:36:15;32.70;;;20.35;;
38805;SDS011;25635;51.146;17.162;2022-10-17T16:38:41;24.95;;;17.10;;
38805;SDS011;25635;51.146;17.162;2022-10-17T16:41:21;20.52;;;14.85;;
38805;SDS011;25635;51.146;17.162;2022-10-17T16:43:47;26.52;;;15.35;;
38805;SDS011;25635;51.146;17.162;2022-10-17T16:46:17;20.55;;;13.53;;
38805;SDS011;25635;51.146;17.162;2022-10-17T16:48:47;18.98;;;14.65;;
38805;SDS011;25635;51.146;17.162;2022-10-17T16:51:14;25.08;;;14.38;;